KHUF/HUF METAR and TAF weather

Enter ICAO airport designator
Station Type Date Time Source
KHUF METAR 2019/12/13 02:53 UTC NOAA

KHUF 130253Z 16007KT 10SM CLR 02/M03 A3016 RMK AO2 SLP217 T00221033 58017


Station Type Date Time Source
KHUF Decoded METAR 2019/12/13 02:53 UTC NOAA

TERRE HAUTE INTERNATIONAL -HULMAN FLD, IN, United States (KHUF) 39-27N 087-19W 179M
Dec 12, 2019 - 09:53 PM EST / 2019.12.13 0253 UTC
Wind: from the SSE (160 degrees) at 8 MPH (7 KT):0
Visibility: 10 mile(s):0
Sky conditions: clear
Temperature: 36.0 F (2.2 C)
Dew Point: 26.1 F (-3.3 C)
Relative Humidity: 66%
Pressure (altimeter): 30.16 in. Hg (1021 hPa)
Pressure tendency: 0.05 inches (1.7 hPa) lower than three hours ago
ob: KHUF 130253Z 16007KT 10SM CLR 02/M03 A3016 RMK AO2 SLP217 T00221033 58017
cycle: 3

Station Type Date Time Source
KHUF TAF 2019/12/12 18:22 UTC NOAA

TAF KHUF 121720Z 1218/1318 16011G19KT P6SM BKN250
FM122300 16009KT P6SM SCT250
FM130900 18006KT P6SM SCT250
FM131100 17006KT P6SM BKN200

Example: see airport list